Time;durP1;ratioP1;P1;durP2;ratioP2;P2;SDS_P1;SDS_P2;PMS_P1;PMS_P2;Temp;Humidity;BMP_temperature;BMP_pressure;BME280_temperature;BME280_humidity;BME280_pressure;Samples;Min_cycle;Max_cycle;Signal;HPM_P1;HPM_P2
2024/02/13 00:01:47;;;;;;;11.90;6.77;;;3.50;99.90;;;;;;4999619;28;20677;-62
2024/02/13 00:04:16;;;;;;;10.50;7.47;;;3.60;99.90;;;;;;4996668;28;20292;-62
2024/02/13 00:06:44;;;;;;;13.73;6.77;;;3.60;99.90;;;;;;4996478;28;20237;-61
2024/02/13 00:09:14;;;;;;;12.90;7.00;;;3.70;99.90;;;;;;5001534;28;20567;-62
2024/02/13 00:11:46;;;;;;;15.33;7.00;;;3.70;99.90;;;;;;5000050;28;20246;-62
2024/02/13 00:14:15;;;;;;;17.00;6.77;;;3.70;99.90;;;;;;4997500;28;20182;-61
2024/02/13 00:16:44;;;;;;;11.43;6.90;;;3.80;99.90;;;;;;4996528;28;20578;-62
2024/02/13 00:19:12;;;;;;;14.10;7.00;;;3.80;99.90;;;;;;4998933;28;20225;-62
2024/02/13 00:21:41;;;;;;;14.57;6.67;;;3.80;99.90;;;;;;5001535;28;20227;-62
2024/02/13 00:24:16;;;;;;;13.87;6.53;;;3.80;99.90;;;;;;4992901;28;20317;-62
2024/02/13 00:26:46;;;;;;;10.53;6.27;;;3.70;99.90;;;;;;4996730;28;20695;-62
2024/02/13 00:29:15;;;;;;;13.53;6.57;;;3.70;99.90;;;;;;4997131;28;20190;-62
2024/02/13 00:31:43;;;;;;;16.57;6.63;;;3.70;99.90;;;;;;5000799;28;20190;-62
2024/02/13 00:34:19;;;;;;;10.13;7.20;;;3.60;99.90;;;;;;4996516;28;20301;-62
2024/02/13 00:36:50;;;;;;;13.80;7.03;;;3.60;99.90;;;;;;4996606;28;20226;-62
2024/02/13 00:39:19;;;;;;;12.40;6.97;;;3.60;99.90;;;;;;4997457;28;20241;-62
2024/02/13 00:41:51;;;;;;;13.40;6.80;;;3.60;99.90;;;;;;4994958;28;20222;-62
2024/02/13 00:44:20;;;;;;;13.00;7.17;;;3.60;99.90;;;;;;5000542;28;20264;-62
2024/02/13 00:46:50;;;;;;;11.13;7.00;;;3.60;99.90;;;;;;5000142;28;20214;-62
2024/02/13 00:49:19;;;;;;;11.27;6.73;;;3.60;99.90;;;;;;4997141;28;20721;-62
2024/02/13 00:51:47;;;;;;;16.67;7.07;;;3.60;99.90;;;;;;4996935;28;20226;-62
2024/02/13 00:54:16;;;;;;;18.50;7.63;;;3.60;99.90;;;;;;4999382;28;20218;-62
2024/02/13 00:56:45;;;;;;;12.37;7.67;;;3.50;99.90;;;;;;5001336;28;21502;-62
2024/02/13 00:59:15;;;;;;;18.47;7.97;;;3.50;99.90;;;;;;4997278;28;20202;-61
2024/02/13 01:01:43;;;;;;;21.90;8.27;;;3.50;99.90;;;;;;4997145;28;20197;-62
2024/02/13 01:04:11;;;;;;;9.20;6.50;;;3.60;99.90;;;;;;4999931;28;20568;-62
2024/02/13 01:06:40;;;;;;;15.40;7.20;;;3.60;99.90;;;;;;5001447;28;20222;-62
2024/02/13 01:09:09;;;;;;;15.63;7.00;;;3.60;99.90;;;;;;5003808;28;20261;-62
2024/02/13 01:11:39;;;;;;;13.90;7.10;;;3.60;99.90;;;;;;5003337;28;20233;-62
2024/02/13 01:14:07;;;;;;;11.40;7.00;;;3.60;99.90;;;;;;5005593;28;20191;-62
2024/02/13 01:16:40;;;;;;;10.37;6.63;;;3.50;99.90;;;;;;5000059;28;20245;-62
2024/02/13 01:19:12;;;;;;;11.43;6.63;;;3.60;99.90;;;;;;5002857;28;20228;-62
2024/02/13 01:21:43;;;;;;;14.17;7.10;;;3.60;99.90;;;;;;5003757;28;20218;-62
2024/02/13 01:24:11;;;;;;;13.20;6.97;;;3.60;99.90;;;;;;5000596;28;20224;-62
2024/02/13 01:26:39;;;;;;;16.37;6.60;;;3.60;99.90;;;;;;5002223;28;20229;-62
2024/02/13 01:29:08;;;;;;;12.00;7.20;;;3.50;99.90;;;;;;5002398;28;20194;-62
2024/02/13 01:31:38;;;;;;;17.60;7.23;;;3.50;99.90;;;;;;4998799;28;20284;-62
2024/02/13 01:34:07;;;;;;;14.60;6.50;;;3.50;99.90;;;;;;4998506;28;20222;-62
2024/02/13 01:36:37;;;;;;;10.67;6.33;;;3.50;99.90;;;;;;5004077;28;20735;-62
2024/02/13 01:39:05;;;;;;;14.37;7.67;;;3.50;99.90;;;;;;5001144;28;20689;-62
2024/02/13 01:41:33;;;;;;;16.10;6.57;;;3.50;99.90;;;;;;4999226;28;20235;-62
2024/02/13 01:44:03;;;;;;;10.83;6.30;;;3.40;99.90;;;;;;5000686;28;20249;-62
2024/02/13 01:46:33;;;;;;;19.97;6.50;;;3.40;99.90;;;;;;4996484;28;20337;-62
2024/02/13 01:49:04;;;;;;;9.90;6.37;;;3.40;99.90;;;;;;5002068;28;20232;-62
2024/02/13 01:51:36;;;;;;;12.00;6.70;;;3.40;99.90;;;;;;5001601;28;20619;-62
2024/02/13 01:54:09;;;;;;;13.47;6.67;;;3.40;99.90;;;;;;4999372;28;20317;-61
2024/02/13 01:56:41;;;;;;;13.83;7.17;;;3.40;99.90;;;;;;5000132;28;20226;-62
2024/02/13 01:59:11;;;;;;;8.80;6.50;;;3.40;99.90;;;;;;5002098;28;20285;-62
2024/02/13 02:01:39;;;;;;;16.27;7.40;;;3.40;99.90;;;;;;5022434;28;20217;-61
2024/02/13 02:04:09;;;;;;;11.30;7.13;;;3.40;99.90;;;;;;5022229;28;20228;-62
2024/02/13 02:06:38;;;;;;;16.33;6.60;;;3.40;99.90;;;;;;5020495;28;20579;-62
2024/02/13 02:09:09;;;;;;;13.27;6.73;;;3.40;99.90;;;;;;5020996;28;20245;-62
2024/02/13 02:11:38;;;;;;;11.87;6.83;;;3.40;99.90;;;;;;5022575;28;20320;-62
2024/02/13 02:14:08;;;;;;;9.60;6.17;;;3.40;99.90;;;;;;5019496;28;20243;-62
2024/02/13 02:16:36;;;;;;;13.17;6.70;;;3.40;99.90;;;;;;5023066;28;20718;-62
2024/02/13 02:19:04;;;;;;;13.87;6.50;;;3.40;99.90;;;;;;5018815;28;20232;-62
2024/02/13 02:21:34;;;;;;;12.50;6.27;;;3.50;99.90;;;;;;5018329;28;20769;-62
2024/02/13 02:24:03;;;;;;;9.77;6.30;;;3.50;99.90;;;;;;5019477;28;20225;-61
2024/02/13 02:26:33;;;;;;;11.10;6.20;;;3.40;99.90;;;;;;5021074;28;20217;-62
2024/02/13 02:29:01;;;;;;;15.53;6.57;;;3.40;99.90;;;;;;5022138;28;20201;-62
2024/02/13 02:31:31;;;;;;;11.20;6.87;;;3.40;99.90;;;;;;5020610;28;20985;-62
2024/02/13 02:34:01;;;;;;;10.90;6.20;;;3.30;99.90;;;;;;5020647;28;20232;-62
2024/02/13 02:36:29;;;;;;;12.13;6.43;;;3.30;99.90;;;;;;5020559;28;20236;-62
2024/02/13 02:38:58;;;;;;;12.37;5.73;;;3.30;99.90;;;;;;5017651;28;20312;-62
2024/02/13 02:41:26;;;;;;;13.70;5.87;;;3.20;99.90;;;;;;5020364;28;20197;-61
2024/02/13 02:43:55;;;;;;;8.07;5.80;;;3.20;99.90;;;;;;5019625;28;20901;-61
2024/02/13 02:46:24;;;;;;;10.03;6.07;;;3.20;99.90;;;;;;5016400;28;20236;-62
2024/02/13 02:48:53;;;;;;;9.53;5.70;;;3.20;99.90;;;;;;5016799;28;20222;-61
2024/02/13 02:51:22;;;;;;;13.50;5.63;;;3.20;99.90;;;;;;5019546;28;20264;-62
2024/02/13 02:53:51;;;;;;;12.23;5.90;;;3.20;99.90;;;;;;5018023;28;20584;-61
2024/02/13 02:56:21;;;;;;;10.30;5.67;;;3.20;99.90;;;;;;5015224;28;20186;-62
2024/02/13 02:58:50;;;;;;;20.50;5.70;;;3.20;99.90;;;;;;5022339;28;20229;-62
2024/02/13 03:01:20;;;;;;;13.10;5.77;;;3.20;99.90;;;;;;5017731;28;20218;-62
2024/02/13 03:03:50;;;;;;;5.97;5.37;;;3.20;99.90;;;;;;5020272;28;20218;-61
2024/02/13 03:06:19;;;;;;;11.30;5.80;;;3.30;99.90;;;;;;5014133;28;20230;-61
2024/02/13 03:08:49;;;;;;;11.83;5.40;;;3.20;99.90;;;;;;5015067;28;20236;-61
2024/02/13 03:11:17;;;;;;;12.23;6.00;;;3.30;99.90;;;;;;5015844;28;20197;-62
2024/02/13 03:13:46;;;;;;;17.27;5.83;;;3.30;99.90;;;;;;5019869;28;20205;-62
2024/02/13 03:16:14;;;;;;;16.27;5.97;;;3.30;99.90;;;;;;5018814;28;20218;-61
2024/02/13 03:18:44;;;;;;;14.53;5.93;;;3.30;99.90;;;;;;5025662;28;20217;-61
2024/02/13 03:21:12;;;;;;;13.37;5.37;;;3.30;99.90;;;;;;5019670;28;20224;-62
2024/02/13 03:23:43;;;;;;;14.43;5.20;;;3.30;99.90;;;;;;5015927;28;20680;-61
2024/02/13 03:26:11;;;;;;;10.57;5.07;;;3.30;99.90;;;;;;5017073;28;20210;-61
2024/02/13 03:28:40;;;;;;;9.23;4.90;;;3.40;99.90;;;;;;5021506;28;20682;-61
2024/02/13 03:31:08;;;;;;;10.27;4.90;;;3.30;99.90;;;;;;5018287;28;20245;-62
2024/02/13 03:33:36;;;;;;;8.70;4.63;;;3.40;99.90;;;;;;5019156;28;20623;-61
2024/02/13 03:36:07;;;;;;;11.63;4.43;;;3.40;99.90;;;;;;5021627;28;20229;-62
2024/02/13 03:38:35;;;;;;;9.50;4.70;;;3.40;99.90;;;;;;5012694;28;20230;-61
2024/02/13 03:41:04;;;;;;;12.70;4.47;;;3.40;99.90;;;;;;5015596;28;20186;-62
2024/02/13 03:43:32;;;;;;;9.53;4.90;;;3.40;99.90;;;;;;5018232;28;20231;-61
2024/02/13 03:46:01;;;;;;;13.00;5.13;;;3.40;99.90;;;;;;5019515;28;20318;-61
2024/02/13 03:48:29;;;;;;;9.30;4.23;;;3.40;99.90;;;;;;5018965;28;20586;-61
2024/02/13 03:50:58;;;;;;;10.90;4.50;;;3.40;99.90;;;;;;5019223;28;20333;-61
2024/02/13 03:53:27;;;;;;;11.10;4.53;;;3.40;99.90;;;;;;5017148;28;20843;-61
2024/02/13 03:55:56;;;;;;;12.83;4.40;;;3.40;99.90;;;;;;5016807;28;20193;-61
2024/02/13 03:58:24;;;;;;;9.77;4.30;;;3.40;99.90;;;;;;5017181;28;20305;-61
2024/02/13 04:00:52;;;;;;;13.23;5.27;;;3.30;99.90;;;;;;5017712;28;20225;-61
2024/02/13 04:03:26;;;;;;;5.33;4.57;;;3.30;99.90;;;;;;5018161;28;20230;-61
2024/02/13 04:05:56;;;;;;;12.33;4.53;;;3.20;99.90;;;;;;5018685;28;20235;-61
2024/02/13 04:08:27;;;;;;;13.73;4.77;;;3.20;99.90;;;;;;5017047;28;20231;-61
2024/02/13 04:10:57;;;;;;;11.33;4.43;;;3.20;99.90;;;;;;5017758;28;20228;-61
2024/02/13 04:13:25;;;;;;;12.07;4.50;;;3.10;99.90;;;;;;5014798;28;20794;-61
2024/02/13 04:15:54;;;;;;;11.27;4.60;;;3.10;99.90;;;;;;5017074;28;20238;-61
2024/02/13 04:18:24;;;;;;;10.77;4.37;;;3.10;99.90;;;;;;5020280;28;20220;-61
2024/02/13 04:20:53;;;;;;;7.57;4.80;;;3.10;99.90;;;;;;5017089;28;20689;-61
2024/02/13 04:23:22;;;;;;;13.97;4.43;;;3.10;99.90;;;;;;5017784;28;20255;-61
2024/02/13 04:25:53;;;;;;;13.27;4.63;;;3.10;99.90;;;;;;5017183;28;20214;-61
2024/02/13 04:28:23;;;;;;;6.33;4.40;;;3.10;99.90;;;;;;5015833;28;20229;-61
2024/02/13 04:30:51;;;;;;;6.37;4.50;;;3.20;99.90;;;;;;5019772;28;20229;-61
2024/02/13 04:33:20;;;;;;;10.33;4.90;;;3.20;99.90;;;;;;5018633;28;20232;-61
2024/02/13 04:35:49;;;;;;;13.57;6.07;;;3.20;99.90;;;;;;5019955;28;20672;-61
2024/02/13 04:38:17;;;;;;;5.50;5.00;;;3.20;99.90;;;;;;5020643;28;20209;-60
2024/02/13 04:40:46;;;;;;;7.87;4.77;;;3.20;99.90;;;;;;5023384;28;20251;-61
2024/02/13 04:43:14;;;;;;;9.50;5.53;;;3.20;99.90;;;;;;5014429;28;20320;-61
2024/02/13 04:45:43;;;;;;;13.00;5.47;;;3.20;99.90;;;;;;5016308;28;20260;-62
2024/02/13 04:48:13;;;;;;;7.30;5.30;;;3.10;99.90;;;;;;5025005;28;20604;-61
2024/02/13 04:50:41;;;;;;;11.23;5.27;;;3.10;99.90;;;;;;5019982;28;20233;-62
2024/02/13 04:53:09;;;;;;;7.23;4.70;;;3.10;99.90;;;;;;5020815;28;20202;-61
2024/02/13 04:55:38;;;;;;;15.10;5.40;;;3.10;99.90;;;;;;5020992;28;20307;-62
2024/02/13 04:58:17;;;;;;;12.93;5.10;;;3.10;99.90;;;;;;5023117;28;20225;-62
2024/02/13 05:00:51;;;;;;;8.40;4.87;;;3.10;99.90;;;;;;5020407;28;20829;-62
2024/02/13 05:03:26;;;;;;;11.50;5.10;;;3.10;99.90;;;;;;5017397;28;20220;-61
2024/02/13 05:08:43;;;;;;;7.10;5.33;;;3.10;99.90;;;;;;5021439;28;20243;-62
2024/02/13 05:11:13;;;;;;;12.77;5.33;;;3.10;99.90;;;;;;5023228;28;20202;-62
2024/02/13 05:13:41;;;;;;;12.73;5.20;;;3.10;99.90;;;;;;5022009;28;20229;-61
2024/02/13 05:16:11;;;;;;;9.37;5.23;;;3.10;99.90;;;;;;5021186;28;20224;-62
2024/02/13 05:18:39;;;;;;;5.20;4.70;;;3.10;99.90;;;;;;5018769;28;20317;-62
2024/02/13 05:21:10;;;;;;;10.67;4.63;;;3.20;99.90;;;;;;5017880;28;20304;-61
2024/02/13 05:23:39;;;;;;;4.93;4.43;;;3.20;99.90;;;;;;5019982;28;20229;-62
2024/02/13 05:26:07;;;;;;;6.90;4.63;;;3.20;99.90;;;;;;5021533;28;20292;-61
2024/02/13 05:28:37;;;;;;;8.90;4.37;;;3.20;99.90;;;;;;5017905;28;20591;-61
2024/02/13 05:31:08;;;;;;;12.43;4.40;;;3.20;99.90;;;;;;5021540;28;20221;-62
2024/02/13 05:33:39;;;;;;;8.43;4.90;;;3.10;99.90;;;;;;5015761;28;20224;-61
2024/02/13 05:36:09;;;;;;;5.27;4.27;;;3.10;99.90;;;;;;5022935;28;20228;-62
2024/02/13 05:38:43;;;;;;;6.07;4.17;;;3.20;99.90;;;;;;5019699;28;20276;-62
2024/02/13 05:41:12;;;;;;;9.00;4.43;;;3.10;99.90;;;;;;5022419;28;20287;-61
2024/02/13 05:43:41;;;;;;;8.30;4.23;;;3.10;99.90;;;;;;5004313;28;20669;-62
2024/02/13 05:46:10;;;;;;;12.90;4.23;;;3.00;99.90;;;;;;5003960;28;20246;-62
2024/02/13 05:48:42;;;;;;;8.50;4.63;;;3.00;99.90;;;;;;4998739;28;20237;-62
2024/02/13 05:51:11;;;;;;;13.53;4.67;;;3.00;99.90;;;;;;4997396;28;20226;-61
2024/02/13 05:53:43;;;;;;;9.13;4.80;;;3.00;99.90;;;;;;4997892;28;20234;-61
2024/02/13 05:56:12;;;;;;;10.40;4.83;;;3.00;99.90;;;;;;5001332;28;20198;-61
2024/02/13 05:58:53;;;;;;;5.33;4.60;;;3.00;99.90;;;;;;5019156;28;20225;-61
2024/02/13 06:01:21;;;;;;;16.03;4.67;;;3.10;99.90;;;;;;5019506;28;20295;-61
2024/02/13 06:03:56;;;;;;;10.17;4.70;;;3.00;99.90;;;;;;5022931;28;20217;-61
2024/02/13 06:06:25;;;;;;;7.03;4.50;;;3.00;99.90;;;;;;5020379;28;20243;-61
2024/02/13 06:08:54;;;;;;;7.67;5.10;;;3.00;99.90;;;;;;5019390;28;20685;-61
2024/02/13 06:11:25;;;;;;;11.33;4.60;;;3.00;99.90;;;;;;5020351;28;20569;-61
2024/02/13 06:13:56;;;;;;;10.73;4.83;;;3.00;99.90;;;;;;5020869;28;20204;-61
2024/02/13 06:16:24;;;;;;;7.07;4.80;;;2.90;99.90;;;;;;5022992;28;20225;-61
2024/02/13 06:18:54;;;;;;;7.50;4.70;;;2.90;99.90;;;;;;5021524;28;20209;-61
2024/02/13 06:21:23;;;;;;;4.77;4.33;;;2.90;99.90;;;;;;5021734;28;20222;-61
2024/02/13 06:23:55;;;;;;;9.63;5.47;;;2.90;99.90;;;;;;5016543;28;20712;-61
2024/02/13 06:26:24;;;;;;;7.53;5.03;;;2.90;99.90;;;;;;5017738;28;20284;-61
2024/02/13 06:28:53;;;;;;;10.27;5.20;;;2.90;99.90;;;;;;5018186;28;20210;-61
2024/02/13 06:31:21;;;;;;;9.67;5.73;;;2.90;99.90;;;;;;5021934;28;20769;-61
2024/02/13 06:33:50;;;;;;;7.80;5.00;;;2.90;99.90;;;;;;5020810;28;20584;-61
2024/02/13 06:36:20;;;;;;;11.23;5.50;;;3.00;99.90;;;;;;5020358;28;20727;-61
2024/02/13 06:38:48;;;;;;;12.50;5.50;;;2.90;99.90;;;;;;5020042;28;20233;-61
2024/02/13 06:41:16;;;;;;;10.63;5.80;;;2.90;99.90;;;;;;5019088;28;20294;-61
2024/02/13 06:43:44;;;;;;;11.77;6.27;;;2.90;99.90;;;;;;5018423;28;20206;-62
2024/02/13 06:46:14;;;;;;;7.20;5.60;;;3.00;99.90;;;;;;4993612;28;20221;-62
2024/02/13 06:48:42;;;;;;;11.63;5.77;;;3.00;99.90;;;;;;5004818;28;20224;-62
2024/02/13 06:51:12;;;;;;;11.47;6.07;;;2.90;99.90;;;;;;5017755;28;20316;-62
2024/02/13 06:53:42;;;;;;;8.63;5.80;;;2.90;99.90;;;;;;5020074;28;20542;-61
2024/02/13 06:56:14;;;;;;;14.70;5.97;;;3.00;99.90;;;;;;5019262;28;20244;-62
2024/02/13 06:58:42;;;;;;;10.27;6.17;;;3.00;99.90;;;;;;5018986;28;20210;-61
2024/02/13 07:01:12;;;;;;;12.10;6.27;;;3.00;99.90;;;;;;5006716;28;20571;-62
2024/02/13 07:03:41;;;;;;;11.97;6.30;;;3.00;99.90;;;;;;4996014;28;20234;-62
2024/02/13 07:06:11;;;;;;;11.83;6.63;;;3.00;99.90;;;;;;4999852;28;20222;-62
2024/02/13 07:08:41;;;;;;;15.10;6.93;;;3.00;99.90;;;;;;4996479;28;20977;-62
2024/02/13 07:11:10;;;;;;;17.33;6.20;;;2.90;99.90;;;;;;5001361;28;20774;-61
2024/02/13 07:13:39;;;;;;;13.70;7.10;;;3.00;99.90;;;;;;4999165;28;20237;-62
2024/02/13 07:16:07;;;;;;;15.23;6.73;;;3.00;99.90;;;;;;4997367;28;20229;-62
2024/02/13 07:18:36;;;;;;;9.73;6.87;;;3.00;99.90;;;;;;4999281;28;20218;-62
2024/02/13 07:21:06;;;;;;;14.10;7.27;;;3.10;99.90;;;;;;4995582;28;20214;-62
2024/02/13 07:23:36;;;;;;;17.80;7.30;;;3.10;99.90;;;;;;4994707;28;20317;-61
2024/02/13 07:26:06;;;;;;;12.67;6.80;;;3.10;99.90;;;;;;4996172;28;20233;-62
2024/02/13 07:28:34;;;;;;;12.90;7.37;;;3.20;99.90;;;;;;5001890;28;20339;-61
2024/02/13 07:31:03;;;;;;;12.37;7.27;;;3.20;99.90;;;;;;4996455;28;20229;-61
2024/02/13 07:33:31;;;;;;;13.80;7.40;;;3.20;99.90;;;;;;4999542;28;20218;-62
2024/02/13 07:36:00;;;;;;;12.53;7.07;;;3.20;99.90;;;;;;4999361;28;20218;-61
2024/02/13 07:38:29;;;;;;;13.93;8.00;;;3.20;99.90;;;;;;4996973;28;20211;-61
2024/02/13 07:40:58;;;;;;;20.93;7.43;;;3.20;99.90;;;;;;5001033;28;20209;-61
2024/02/13 07:43:27;;;;;;;15.97;7.63;;;3.30;99.90;;;;;;4994433;28;20641;-61
2024/02/13 07:45:56;;;;;;;17.13;7.50;;;3.30;99.90;;;;;;4992617;28;20234;-61
2024/02/13 07:48:24;;;;;;;13.13;7.37;;;3.30;99.90;;;;;;4997201;28;20223;-62
2024/02/13 07:50:53;;;;;;;14.17;7.63;;;3.40;99.90;;;;;;4997412;28;20226;-62
2024/02/13 07:53:22;;;;;;;14.93;7.67;;;3.40;99.90;;;;;;4998157;28;20222;-61
2024/02/13 07:55:50;;;;;;;15.07;7.43;;;3.40;99.90;;;;;;4995573;28;20767;-61
2024/02/13 07:58:19;;;;;;;12.40;7.27;;;3.50;99.90;;;;;;4997090;28;20322;-62
2024/02/13 08:00:49;;;;;;;15.37;7.13;;;3.60;99.90;;;;;;4997547;28;20217;-62
2024/02/13 08:03:17;;;;;;;14.60;7.33;;;3.80;99.90;;;;;;4997086;28;20218;-62
2024/02/13 08:05:46;;;;;;;15.87;7.30;;;3.80;99.90;;;;;;4995773;28;20774;-61
2024/02/13 08:08:16;;;;;;;11.87;7.03;;;3.90;99.90;;;;;;4999463;28;20206;-61
2024/02/13 08:10:46;;;;;;;16.90;7.17;;;4.00;99.90;;;;;;4999320;28;20245;-61
2024/02/13 08:13:14;;;;;;;13.70;7.43;;;4.10;99.90;;;;;;4999583;28;20221;-61
2024/02/13 08:15:42;;;;;;;10.90;6.90;;;4.10;99.90;;;;;;5000034;28;20251;-61
2024/02/13 08:18:12;;;;;;;8.03;6.60;;;4.10;99.90;;;;;;4995398;28;20219;-61
2024/02/13 08:20:41;;;;;;;11.60;6.57;;;4.20;99.90;;;;;;4999867;28;20228;-62
2024/02/13 08:23:09;;;;;;;13.27;6.53;;;4.20;99.90;;;;;;4999419;28;20203;-61
2024/02/13 08:25:37;;;;;;;11.63;6.13;;;4.30;99.90;;;;;;4996519;28;20227;-62
2024/02/13 08:28:07;;;;;;;9.60;5.90;;;4.40;99.90;;;;;;4996623;28;21065;-62
2024/02/13 08:30:35;;;;;;;9.03;5.80;;;4.50;99.90;;;;;;5000167;28;20232;-62
2024/02/13 08:33:05;;;;;;;8.70;5.60;;;4.50;99.90;;;;;;4993837;28;20728;-62
2024/02/13 08:35:35;;;;;;;8.70;5.57;;;4.50;99.90;;;;;;4995695;28;20243;-62
2024/02/13 08:38:03;;;;;;;11.30;5.97;;;4.60;99.90;;;;;;5000874;28;20190;-62
2024/02/13 08:40:31;;;;;;;16.77;6.03;;;4.70;99.90;;;;;;4999807;28;20229;-62
2024/02/13 08:42:59;;;;;;;7.87;5.37;;;4.70;99.90;;;;;;4998448;28;20233;-62
2024/02/13 08:45:28;;;;;;;11.53;5.97;;;4.80;99.90;;;;;;4996836;28;20257;-62
2024/02/13 08:47:56;;;;;;;12.00;5.40;;;4.90;99.90;;;;;;4995055;28;20234;-62
2024/02/13 08:50:24;;;;;;;6.90;5.47;;;4.90;99.90;;;;;;5000651;28;20194;-62
2024/02/13 08:52:54;;;;;;;9.37;5.40;;;4.80;99.90;;;;;;4998900;28;20210;-62
2024/02/13 08:55:23;;;;;;;10.13;5.93;;;4.80;99.90;;;;;;4999127;28;20241;-62
2024/02/13 08:57:52;;;;;;;8.87;5.40;;;4.90;99.90;;;;;;4998591;28;20222;-62
2024/02/13 09:00:26;;;;;;;14.00;6.13;;;5.00;99.90;;;;;;4995900;28;20253;-62
2024/02/13 09:02:54;;;;;;;10.40;6.03;;;5.10;99.90;;;;;;4992356;28;20245;-62
2024/02/13 09:05:24;;;;;;;12.80;4.90;;;5.30;99.90;;;;;;4993110;28;20238;-62
2024/02/13 09:07:54;;;;;;;7.57;5.27;;;5.50;99.90;;;;;;5003764;28;20190;-62
2024/02/13 09:10:22;;;;;;;10.00;5.53;;;5.70;99.90;;;;;;4999271;28;20229;-62
2024/02/13 09:12:50;;;;;;;7.97;5.10;;;5.70;99.90;;;;;;4996066;28;20230;-62
2024/02/13 09:15:19;;;;;;;7.17;5.13;;;5.70;99.90;;;;;;4998653;28;20745;-62
2024/02/13 09:17:50;;;;;;;9.03;5.30;;;5.80;99.90;;;;;;4997481;28;20245;-62
2024/02/13 09:20:21;;;;;;;12.43;5.00;;;5.90;99.90;;;;;;4998598;28;20201;-62
2024/02/13 09:22:50;;;;;;;8.97;5.10;;;6.10;99.90;;;;;;4992021;28;20601;-62
2024/02/13 09:25:20;;;;;;;10.60;5.00;;;6.30;99.90;;;;;;5000440;28;20228;-62
2024/02/13 09:27:49;;;;;;;5.23;4.23;;;6.50;99.90;;;;;;5000077;28;20295;-62
2024/02/13 09:30:18;;;;;;;8.20;4.23;;;6.80;99.90;;;;;;5004977;28;20226;-62
2024/02/13 09:32:48;;;;;;;4.40;4.00;;;7.20;99.90;;;;;;5000605;28;20226;-62
2024/02/13 09:35:17;;;;;;;7.53;3.93;;;7.30;99.90;;;;;;5000843;28;20272;-62
2024/02/13 09:37:46;;;;;;;6.90;4.13;;;7.40;99.90;;;;;;5000823;28;20194;-62
2024/02/13 09:40:14;;;;;;;7.97;4.33;;;7.60;99.90;;;;;;4998293;28;20577;-62
2024/02/13 09:42:45;;;;;;;5.00;3.83;;;7.50;99.90;;;;;;5002602;28;20705;-62
2024/02/13 09:45:16;;;;;;;11.10;4.20;;;7.60;99.90;;;;;;5000525;28;20225;-62
2024/02/13 09:47:45;;;;;;;5.13;3.70;;;7.70;99.90;;;;;;4996937;28;20223;-62
2024/02/13 09:50:14;;;;;;;7.13;3.63;;;7.90;99.90;;;;;;5005665;28;20566;-61
2024/02/13 09:52:48;;;;;;;6.80;3.70;;;8.00;99.90;;;;;;4996618;28;20728;-62
2024/02/13 09:55:18;;;;;;;4.20;3.27;;;8.00;99.90;;;;;;4998818;28;20256;-62
2024/02/13 09:57:49;;;;;;;6.37;4.50;;;8.00;99.90;;;;;;5001090;28;20225;-62
2024/02/13 10:00:18;;;;;;;6.30;3.87;;;8.00;99.90;;;;;;5000655;28;20230;-62
2024/02/13 10:02:48;;;;;;;11.27;3.80;;;8.10;99.90;;;;;;5002752;28;20249;-62
2024/02/13 10:05:16;;;;;;;7.37;4.43;;;8.00;99.90;;;;;;4999954;28;20226;-62
2024/02/13 10:07:47;;;;;;;4.97;3.57;;;8.10;99.90;;;;;;4998677;28;20201;-62
2024/02/13 10:10:16;;;;;;;6.57;3.90;;;8.30;99.90;;;;;;4999253;28;20225;-62
2024/02/13 10:12:53;;;;;;;8.03;4.00;;;8.40;99.90;;;;;;5000787;28;20218;-62
2024/02/13 10:15:22;;;;;;;5.37;3.60;;;8.50;99.90;;;;;;4997270;28;20748;-62
2024/02/13 10:17:51;;;;;;;7.67;3.90;;;8.60;99.90;;;;;;5000538;28;20241;-62
2024/02/13 10:20:20;;;;;;;10.97;3.60;;;8.80;99.90;;;;;;5003314;28;20195;-61
2024/02/13 10:22:50;;;;;;;5.53;3.50;;;9.00;99.90;;;;;;5000820;28;20198;-62
2024/02/13 10:25:21;;;;;;;5.73;3.50;;;9.10;99.90;;;;;;4984968;28;20335;-62
2024/02/13 10:28:00;;;;;;;7.93;3.60;;;9.00;99.90;;;;;;5000029;28;20221;-62
2024/02/13 10:30:29;;;;;;;5.13;3.87;;;8.70;99.90;;;;;;4999365;28;20600;-62
2024/02/13 10:33:00;;;;;;;6.70;3.37;;;8.60;99.90;;;;;;5000312;28;20233;-62
2024/02/13 10:35:30;;;;;;;7.20;3.40;;;8.60;99.90;;;;;;5001738;28;20194;-62
2024/02/13 10:37:59;;;;;;;10.37;3.47;;;8.80;99.90;;;;;;4998042;28;20194;-62
2024/02/13 10:40:28;;;;;;;5.97;3.23;;;9.00;99.90;;;;;;4999929;28;20297;-62
2024/02/13 10:42:59;;;;;;;7.07;3.90;;;9.30;99.90;;;;;;4997089;28;20232;-62
2024/02/13 10:45:30;;;;;;;3.43;3.10;;;9.30;99.90;;;;;;5002661;28;20225;-62
2024/02/13 10:48:07;;;;;;;5.27;3.00;;;9.40;99.90;;;;;;5000987;28;20317;-62
2024/02/13 10:50:37;;;;;;;6.63;3.03;;;9.70;99.90;;;;;;4994826;28;20226;-62
2024/02/13 10:53:05;;;;;;;7.43;3.27;;;9.90;99.10;;;;;;5001731;28;20199;-62
2024/02/13 10:55:34;;;;;;;7.27;3.20;;;10.00;93.10;;;;;;5004234;28;20221;-62
2024/02/13 10:58:05;;;;;;;7.03;3.37;;;9.90;93.20;;;;;;4999775;28;20225;-62
2024/02/13 11:00:51;;;;;;;7.03;2.90;;;10.00;94.00;;;;;;5000692;28;20373;-62
2024/02/13 11:03:21;;;;;;;4.57;2.77;;;10.30;96.20;;;;;;5002213;28;20235;-62
2024/02/13 11:05:49;;;;;;;5.03;2.93;;;10.50;91.10;;;;;;4997612;28;20295;-62
2024/02/13 11:08:18;;;;;;;12.87;3.40;;;10.50;84.00;;;;;;4996570;28;20285;-62
2024/02/13 11:10:46;;;;;;;3.50;2.60;;;10.60;92.30;;;;;;4995993;28;20234;-62
2024/02/13 11:13:18;;;;;;;3.00;2.80;;;10.70;99.90;;;;;;4997988;28;20229;-62
2024/02/13 11:15:48;;;;;;;5.53;2.90;;;10.90;99.90;;;;;;4999534;28;20677;-62
2024/02/13 11:18:17;;;;;;;3.40;2.53;;;11.20;99.90;;;;;;4998808;28;20288;-62
2024/02/13 11:20:54;;;;;;;4.30;2.70;;;11.00;99.90;;;;;;4998327;28;20229;-62
2024/02/13 11:23:29;;;;;;;5.73;2.80;;;10.90;99.90;;;;;;4996388;28;20218;-62
2024/02/13 11:25:59;;;;;;;4.40;2.50;;;10.80;99.90;;;;;;4996938;28;20566;-62
2024/02/13 11:28:38;;;;;;;5.63;2.60;;;11.10;99.90;;;;;;4995863;28;20229;-62
2024/02/13 11:31:14;;;;;;;4.97;2.20;;;11.20;99.90;;;;;;5005571;28;20229;-62
2024/02/13 11:34:03;;;;;;;2.73;1.93;;;11.20;99.90;;;;;;4997779;28;20226;-62
2024/02/13 11:36:35;;;;;;;2.73;1.93;;;11.30;99.90;;;;;;4998225;28;20607;-62
2024/02/13 11:39:06;;;;;;;2.70;2.00;;;11.60;99.90;;;;;;4993874;28;20214;-62
2024/02/13 11:41:36;;;;;;;5.20;2.00;;;11.70;99.90;;;;;;4996464;28;20235;-62
2024/02/13 11:44:11;;;;;;;2.33;1.90;;;11.60;99.90;;;;;;4996529;28;20194;-63
2024/02/13 11:46:39;;;;;;;2.40;1.70;;;11.60;99.90;;;;;;4978788;28;20255;-62
2024/02/13 11:49:09;;;;;;;3.13;1.80;;;11.60;99.90;;;;;;4992464;28;20674;-62
2024/02/13 11:51:39;;;;;;;2.37;1.67;;;11.60;99.90;;;;;;4999727;28;20238;-62
2024/02/13 11:54:08;;;;;;;2.43;1.80;;;11.50;99.90;;;;;;4996582;28;20234;-62
2024/02/13 11:56:38;;;;;;;4.03;2.03;;;11.20;99.90;;;;;;5000583;28;20236;-62
2024/02/13 11:59:07;;;;;;;5.00;2.10;;;10.90;99.90;;;;;;4997080;28;20214;-62
2024/02/13 12:01:37;;;;;;;4.00;1.70;;;10.90;99.90;;;;;;4993310;28;20254;-62
2024/02/13 12:04:11;;;;;;;2.10;1.50;;;10.90;99.90;;;;;;5002419;28;20226;-62
2024/02/13 12:06:43;;;;;;;1.70;1.60;;;10.80;99.90;;;;;;4999891;28;20226;-62
2024/02/13 12:09:15;;;;;;;6.67;2.10;;;10.80;99.90;;;;;;4996633;28;20317;-62
2024/02/13 12:11:44;;;;;;;3.13;2.10;;;10.80;99.90;;;;;;4997396;28;20285;-62
2024/02/13 12:14:13;;;;;;;3.27;1.90;;;10.80;99.90;;;;;;4995932;28;20280;-63
2024/02/13 12:16:42;;;;;;;2.03;1.93;;;10.80;99.90;;;;;;4999806;28;21008;-62
2024/02/13 12:19:11;;;;;;;3.20;2.13;;;10.90;99.90;;;;;;5003137;28;20222;-62
2024/02/13 12:21:39;;;;;;;6.60;2.67;;;11.00;99.90;;;;;;4996669;28;20301;-62
2024/02/13 12:24:11;;;;;;;5.27;2.10;;;11.00;99.90;;;;;;4997636;28;20218;-62
2024/02/13 12:26:40;;;;;;;3.83;2.30;;;10.90;99.90;;;;;;4997418;28;20238;-62
2024/02/13 12:29:14;;;;;;;3.43;2.20;;;11.00;99.90;;;;;;5001646;28;20198;-62
2024/02/13 12:31:48;;;;;;;4.73;2.10;;;11.10;99.90;;;;;;5002026;28;20819;-62
2024/02/13 12:34:16;;;;;;;3.10;2.20;;;11.10;99.90;;;;;;5000410;28;20226;-62
2024/02/13 12:36:45;;;;;;;3.13;2.03;;;11.30;99.90;;;;;;4996378;28;20214;-62
2024/02/13 12:39:20;;;;;;;2.60;2.40;;;11.60;99.90;;;;;;4996781;28;20222;-62
2024/02/13 12:41:51;;;;;;;3.63;2.20;;;12.00;99.90;;;;;;4999753;28;20697;-62
2024/02/13 12:44:20;;;;;;;5.13;2.90;;;12.10;99.90;;;;;;4998402;28;20201;-62
2024/02/13 12:46:51;;;;;;;4.20;2.30;;;11.90;99.90;;;;;;4999779;28;20205;-62
2024/02/13 12:49:21;;;;;;;4.63;2.37;;;11.90;99.90;;;;;;4999841;28;20230;-62
2024/02/13 12:51:51;;;;;;;3.60;2.60;;;12.50;99.90;;;;;;4998446;28;20234;-62
2024/02/13 12:54:20;;;;;;;4.07;2.60;;;12.80;99.90;;;;;;4994841;28;20230;-62
2024/02/13 12:56:52;;;;;;;3.63;2.93;;;12.60;99.90;;;;;;5000312;28;20393;-61
2024/02/13 12:59:21;;;;;;;5.43;3.10;;;12.20;99.90;;;;;;4998258;28;20294;-62
2024/02/13 13:01:53;;;;;;;9.57;3.00;;;11.90;99.90;;;;;;5003432;28;20611;-62
2024/02/13 13:04:23;;;;;;;5.47;3.23;;;11.90;99.90;;;;;;5002985;28;20753;-62
2024/02/13 13:06:52;;;;;;;3.40;3.10;;;11.80;99.90;;;;;;5018511;28;20218;-62